Time;durP1;ratioP1;P1;durP2;ratioP2;P2;SDS_P1;SDS_P2;PMS_P1;PMS_P2;Temp;Humidity;BMP_temperature;BMP_pressure;BME280_temperature;BME280_humidity;BME280_pressure;Samples;Min_cycle;Max_cycle;Signal;HPM_P1;HPM_P2
2024/04/17 00:00:47;;;;;;;6.60;1.58;;;7.10;99.90;;;;;;5490632;26;20450;-43
2024/04/17 00:03:12;;;;;;;4.05;3.08;;;7.00;99.90;;;;;;5490845;26;20002;-45
2024/04/17 00:05:38;;;;;;;8.15;1.48;;;7.00;99.90;;;;;;5490283;26;20323;-43
2024/04/17 00:08:04;;;;;;;8.82;1.50;;;7.00;99.90;;;;;;5490897;26;20327;-45
2024/04/17 00:10:30;;;;;;;3.28;1.75;;;7.00;99.90;;;;;;5490817;26;20338;-66
2024/04/17 00:12:55;;;;;;;6.38;1.95;;;6.90;99.90;;;;;;5490678;26;19994;-43
2024/04/17 00:15:21;;;;;;;11.05;2.53;;;6.90;99.90;;;;;;5490403;26;20308;-45
2024/04/17 00:17:46;;;;;;;6.45;1.60;;;6.90;99.90;;;;;;5490388;26;20062;-44
2024/04/17 00:20:12;;;;;;;6.95;2.03;;;6.80;99.90;;;;;;5490231;26;20358;-44
2024/04/17 00:22:38;;;;;;;4.80;1.77;;;6.80;99.90;;;;;;5490085;26;20002;-46
2024/04/17 00:25:03;;;;;;;6.40;1.58;;;6.80;99.90;;;;;;5489384;26;19994;-43
2024/04/17 00:27:29;;;;;;;12.07;1.50;;;6.70;99.90;;;;;;5454623;26;20464;-42
2024/04/17 00:29:55;;;;;;;10.25;1.67;;;6.70;99.90;;;;;;5453823;26;20066;-64
2024/04/17 00:32:20;;;;;;;2.30;1.77;;;6.80;99.90;;;;;;5453844;26;19990;-55
2024/04/17 00:34:46;;;;;;;6.22;1.52;;;6.80;99.90;;;;;;5453859;26;20418;-44
2024/04/17 00:37:12;;;;;;;12.63;2.63;;;6.80;99.90;;;;;;5453969;26;20009;-48
2024/04/17 00:39:37;;;;;;;4.70;1.65;;;6.80;99.90;;;;;;5458924;26;20326;-48
2024/04/17 00:42:03;;;;;;;7.05;1.83;;;6.90;99.90;;;;;;5489861;26;19994;-45
2024/04/17 00:44:28;;;;;;;9.05;1.92;;;6.90;99.90;;;;;;5490294;26;20005;-44
2024/04/17 00:46:55;;;;;;;6.32;1.90;;;7.00;99.90;;;;;;5490086;26;20470;-44
2024/04/17 00:49:20;;;;;;;4.93;2.25;;;7.00;99.90;;;;;;5489827;26;20069;-46
2024/04/17 00:51:48;;;;;;;6.10;1.92;;;7.00;99.90;;;;;;5489974;26;20331;-43
2024/04/17 00:54:15;;;;;;;10.60;4.13;;;7.10;99.90;;;;;;5490168;26;19994;-57
2024/04/17 00:56:40;;;;;;;6.28;2.83;;;7.00;99.90;;;;;;5489695;26;20287;-56
2024/04/17 00:59:07;;;;;;;6.25;1.98;;;7.00;99.90;;;;;;5489907;26;20005;-56
2024/04/17 01:01:32;;;;;;;10.93;1.92;;;7.00;99.90;;;;;;5489546;26;19997;-56
2024/04/17 01:03:58;;;;;;;6.00;2.28;;;7.10;99.90;;;;;;5488828;26;20435;-54
2024/04/17 01:06:25;;;;;;;6.93;1.58;;;7.10;99.90;;;;;;5489153;26;20354;-55
2024/04/17 01:08:53;;;;;;;4.57;1.40;;;7.10;99.90;;;;;;5489709;26;20457;-55
2024/04/17 01:11:19;;;;;;;5.68;1.55;;;7.10;99.90;;;;;;5489788;26;20438;-56
2024/04/17 01:13:45;;;;;;;10.95;1.27;;;7.00;99.90;;;;;;5489372;26;20006;-57
2024/04/17 01:16:10;;;;;;;5.85;1.55;;;6.80;99.90;;;;;;5489660;26;20070;-56
2024/04/17 01:18:38;;;;;;;9.43;1.52;;;6.70;99.90;;;;;;5486783;26;19990;-55
2024/04/17 01:21:04;;;;;;;2.17;1.00;;;6.70;99.90;;;;;;5489356;26;20526;-53
2024/04/17 01:23:29;;;;;;;3.13;0.80;;;6.70;99.90;;;;;;5489416;26;20018;-64
2024/04/17 01:25:55;;;;;;;4.40;0.88;;;6.70;99.90;;;;;;5487573;26;20353;-52
2024/04/17 01:28:21;;;;;;;4.55;0.88;;;6.70;99.90;;;;;;5489445;26;19991;-47
2024/04/17 01:30:46;;;;;;;3.42;0.60;;;6.80;99.90;;;;;;5489018;26;19990;-53
2024/04/17 01:33:12;;;;;;;2.47;0.60;;;6.80;99.90;;;;;;5489445;26;20028;-54
2024/04/17 01:35:38;;;;;;;3.72;0.82;;;6.90;99.90;;;;;;5488104;26;20314;-54
2024/04/17 01:38:04;;;;;;;2.85;0.85;;;6.90;99.90;;;;;;5489640;26;19990;-54
2024/04/17 01:40:29;;;;;;;2.70;0.90;;;6.90;99.90;;;;;;5487896;26;20068;-53
2024/04/17 01:42:55;;;;;;;1.52;1.00;;;6.90;99.90;;;;;;5487839;26;20076;-54
2024/04/17 01:45:21;;;;;;;1.20;1.10;;;6.90;99.90;;;;;;5489325;26;19998;-55
2024/04/17 01:47:46;;;;;;;2.42;1.08;;;7.00;99.90;;;;;;5487123;26;20450;-53
2024/04/17 01:50:12;;;;;;;2.85;0.95;;;7.00;99.90;;;;;;5488904;26;19997;-52
2024/04/17 01:52:38;;;;;;;1.50;0.80;;;7.10;99.90;;;;;;5489003;26;19994;-53
2024/04/17 01:55:04;;;;;;;1.40;0.70;;;7.10;99.90;;;;;;5488783;26;20400;-54
2024/04/17 01:57:29;;;;;;;6.13;0.80;;;7.10;99.90;;;;;;5488928;26;19994;-53
2024/04/17 01:59:55;;;;;;;0.68;0.60;;;7.10;99.90;;;;;;5487329;26;20005;-54
2024/04/17 02:02:21;;;;;;;1.75;0.75;;;7.10;99.90;;;;;;5466758;26;19994;-40
2024/04/17 02:04:46;;;;;;;0.70;0.70;;;7.10;99.90;;;;;;5488714;26;20408;-39
2024/04/17 02:07:12;;;;;;;1.10;1.00;;;7.10;99.90;;;;;;5488731;26;20009;-38
2024/04/17 02:09:37;;;;;;;1.98;1.13;;;7.10;99.90;;;;;;5488780;26;20070;-38
2024/04/17 02:12:03;;;;;;;5.50;1.20;;;7.20;99.90;;;;;;5488846;26;19994;-39
2024/04/17 02:14:29;;;;;;;3.90;0.80;;;7.20;99.90;;;;;;5488823;26;20005;-70
2024/04/17 02:16:55;;;;;;;0.90;0.60;;;7.30;99.90;;;;;;5488907;26;20070;-38
2024/04/17 02:19:20;;;;;;;0.82;0.82;;;7.30;99.90;;;;;;5464329;26;19998;-38
2024/04/17 02:21:46;;;;;;;1.25;1.00;;;7.30;99.90;;;;;;5459974;26;20006;-43
2024/04/17 02:24:11;;;;;;;3.33;2.10;;;7.30;99.90;;;;;;5488653;26;19998;-38
2024/04/17 02:26:37;;;;;;;3.13;1.00;;;7.30;99.90;;;;;;5465967;26;20067;-39
2024/04/17 02:29:03;;;;;;;4.63;0.95;;;7.30;99.90;;;;;;5450256;26;19995;-37
2024/04/17 02:31:28;;;;;;;2.25;0.88;;;7.30;99.90;;;;;;5451964;26;20067;-38
2024/04/17 02:33:54;;;;;;;4.50;1.08;;;7.20;99.90;;;;;;5454170;26;20384;-38
2024/04/17 02:36:20;;;;;;;3.72;0.90;;;7.10;99.90;;;;;;5451921;26;20003;-37
2024/04/17 02:38:45;;;;;;;6.25;1.20;;;7.00;99.90;;;;;;5459596;26;20013;-38
2024/04/17 02:41:11;;;;;;;1.35;0.90;;;7.00;99.90;;;;;;5488051;26;20006;-38
2024/04/17 02:43:36;;;;;;;2.05;0.90;;;7.00;99.90;;;;;;5488176;26;19998;-41
2024/04/17 02:46:02;;;;;;;5.15;0.90;;;6.90;99.90;;;;;;5488018;26;20066;-38
2024/04/17 02:48:28;;;;;;;0.80;0.80;;;6.80;99.90;;;;;;5491447;26;20062;-38
2024/04/17 02:50:53;;;;;;;10.77;1.27;;;6.80;99.90;;;;;;5491820;26;20335;-38
2024/04/17 02:53:19;;;;;;;4.68;1.13;;;6.80;99.90;;;;;;5491814;26;20039;-38
2024/04/17 02:58:29;;;;;;;8.05;1.20;;;6.70;99.90;;;;;;5491811;26;20066;-54
2024/04/17 03:00:55;;;;;;;2.05;0.77;;;6.70;99.90;;;;;;5491513;26;20465;-54
2024/04/17 03:03:20;;;;;;;3.15;1.13;;;6.80;99.90;;;;;;5491490;26;20098;-54
2024/04/17 03:05:46;;;;;;;2.78;0.95;;;6.80;99.90;;;;;;5491465;26;19998;-54
2024/04/17 03:08:11;;;;;;;4.53;0.80;;;6.70;99.90;;;;;;5491474;26;19994;-49
2024/04/17 03:10:37;;;;;;;2.58;0.85;;;6.80;99.90;;;;;;5491471;26;20026;-54
2024/04/17 03:13:03;;;;;;;3.80;1.02;;;6.80;99.90;;;;;;5491193;26;20017;-40
2024/04/17 03:15:29;;;;;;;4.05;0.80;;;6.80;99.90;;;;;;5489770;26;20010;-51
2024/04/17 03:17:54;;;;;;;0.82;0.52;;;6.80;99.90;;;;;;5491384;26;19998;-54
2024/04/17 03:20:20;;;;;;;5.20;1.10;;;6.80;99.90;;;;;;5491251;26;20002;-51
2024/04/17 03:22:45;;;;;;;2.38;0.70;;;6.70;99.90;;;;;;5491156;26;20002;-52
2024/04/17 03:25:11;;;;;;;3.63;0.75;;;6.70;99.90;;;;;;5490895;26;20075;-53
2024/04/17 03:27:37;;;;;;;4.00;1.33;;;6.70;99.90;;;;;;5491321;26;20062;-50
2024/04/17 03:30:03;;;;;;;3.40;0.70;;;6.70;99.90;;;;;;5491092;26;20402;-53
2024/04/17 03:32:28;;;;;;;2.63;0.70;;;6.70;99.90;;;;;;5491188;26;20446;-53
2024/04/17 03:34:54;;;;;;;1.20;0.85;;;6.70;99.90;;;;;;5490904;26;20009;-53
2024/04/17 03:37:19;;;;;;;3.90;0.63;;;6.80;99.90;;;;;;5490353;26;19998;-53
2024/04/17 03:39:45;;;;;;;1.92;0.65;;;6.80;99.90;;;;;;5491031;26;20009;-53
2024/04/17 03:42:11;;;;;;;6.20;0.70;;;6.80;99.90;;;;;;5489181;26;19994;-51
2024/04/17 03:44:36;;;;;;;2.80;0.80;;;6.80;99.90;;;;;;5490179;26;20013;-53
2024/04/17 03:47:02;;;;;;;3.15;0.57;;;6.80;99.90;;;;;;5490943;26;20067;-51
2024/04/17 03:49:27;;;;;;;4.38;0.80;;;6.80;99.90;;;;;;5490780;26;20039;-54
2024/04/17 03:51:53;;;;;;;13.77;0.98;;;6.80;99.90;;;;;;5469837;26;20467;-51
2024/04/17 03:54:19;;;;;;;4.88;0.90;;;6.80;99.90;;;;;;5454642;26;19995;-52
2024/04/17 03:56:44;;;;;;;0.93;0.65;;;6.80;99.90;;;;;;5454198;26;20071;-49
2024/04/17 03:59:10;;;;;;;0.75;0.65;;;6.80;99.90;;;;;;5452325;26;19994;-52
2024/04/17 04:01:36;;;;;;;14.77;1.02;;;6.70;99.90;;;;;;5454854;26;19998;-69
2024/04/17 04:04:02;;;;;;;10.70;1.15;;;6.80;99.90;;;;;;5454129;26;20013;-54
2024/04/17 04:06:28;;;;;;;3.25;0.40;;;6.80;99.90;;;;;;5472375;26;20006;-52
2024/04/17 04:08:53;;;;;;;4.72;0.95;;;6.80;99.90;;;;;;5490671;26;20034;-52
2024/04/17 04:11:19;;;;;;;3.42;0.63;;;6.80;99.90;;;;;;5490607;26;20006;-53
2024/04/17 04:13:45;;;;;;;9.38;1.08;;;6.80;99.90;;;;;;5490581;26;20476;-50
2024/04/17 04:16:10;;;;;;;5.47;0.50;;;6.70;99.90;;;;;;5456859;26;19999;-49
2024/04/17 04:18:36;;;;;;;3.70;0.60;;;6.70;99.90;;;;;;5454131;26;20452;-49
2024/04/17 04:21:01;;;;;;;0.88;0.50;;;6.70;99.90;;;;;;5462117;26;20006;-51
2024/04/17 04:23:27;;;;;;;4.13;0.50;;;6.70;99.90;;;;;;5490496;26;19995;-50
2024/04/17 04:25:52;;;;;;;3.67;0.63;;;6.70;99.90;;;;;;5488343;26;20462;-50
2024/04/17 04:28:18;;;;;;;3.33;1.00;;;6.70;99.90;;;;;;5484335;26;20003;-51
2024/04/17 04:30:44;;;;;;;2.65;1.45;;;6.70;99.90;;;;;;5453854;26;19999;-53
2024/04/17 04:33:09;;;;;;;5.68;0.90;;;6.60;99.90;;;;;;5453855;26;20097;-48
2024/04/17 04:35:35;;;;;;;4.88;0.70;;;6.60;99.90;;;;;;5460488;26;20506;-53
2024/04/17 04:38:01;;;;;;;1.60;0.70;;;6.60;99.90;;;;;;5490169;26;20519;-36
2024/04/17 04:40:26;;;;;;;6.35;0.93;;;6.60;99.90;;;;;;5490085;26;20002;-37
2024/04/17 04:42:52;;;;;;;7.55;1.45;;;6.60;99.90;;;;;;5490082;26;20034;-38
2024/04/17 04:45:17;;;;;;;5.88;0.82;;;6.60;99.90;;;;;;5478941;26;20460;-38
2024/04/17 04:47:43;;;;;;;4.68;0.63;;;6.60;99.90;;;;;;5453643;26;19995;-37
2024/04/17 04:50:09;;;;;;;5.20;0.80;;;6.60;99.90;;;;;;5453588;26;20465;-37
2024/04/17 04:52:34;;;;;;;2.30;0.70;;;6.70;99.90;;;;;;5460906;26;20010;-53
2024/04/17 04:55:00;;;;;;;6.30;1.10;;;6.70;99.90;;;;;;5453557;26;20007;-53
2024/04/17 04:57:25;;;;;;;5.32;1.35;;;6.70;99.90;;;;;;5453456;26;19995;-52
2024/04/17 04:59:51;;;;;;;9.35;1.17;;;6.70;99.90;;;;;;5453339;26;19999;-57
2024/04/17 05:02:17;;;;;;;12.52;1.35;;;6.70;99.90;;;;;;5453985;26;19995;-52
2024/04/17 05:04:43;;;;;;;9.75;2.25;;;6.80;99.90;;;;;;5470078;26;20026;-53
2024/04/17 05:07:09;;;;;;;2.03;0.88;;;6.70;99.90;;;;;;5485460;26;19998;-53
2024/04/17 05:09:34;;;;;;;4.05;1.30;;;6.70;99.90;;;;;;5463799;26;20068;-54
2024/04/17 05:12:00;;;;;;;4.13;0.95;;;6.70;99.90;;;;;;5453434;26;19999;-53
2024/04/17 05:14:25;;;;;;;3.05;1.20;;;6.80;99.90;;;;;;5453863;26;19999;-50
2024/04/17 05:16:51;;;;;;;4.22;1.05;;;6.80;99.90;;;;;;5453214;26;20005;-52
2024/04/17 05:19:17;;;;;;;4.15;1.33;;;6.80;99.90;;;;;;5453165;26;20459;-47
2024/04/17 05:21:42;;;;;;;5.90;1.10;;;6.70;99.90;;;;;;5470248;26;20331;-51
2024/04/17 05:24:08;;;;;;;2.67;1.10;;;6.70;99.90;;;;;;5489394;26;20008;-51
2024/04/17 05:26:34;;;;;;;5.78;1.10;;;6.70;99.90;;;;;;5489031;26;20009;-51
2024/04/17 05:28:59;;;;;;;3.97;0.75;;;6.70;99.90;;;;;;5485643;26;20009;-53
2024/04/17 05:31:25;;;;;;;7.13;1.17;;;6.70;99.90;;;;;;5453575;26;20335;-53
2024/04/17 05:33:51;;;;;;;4.63;1.50;;;6.60;99.90;;;;;;5452996;26;19999;-53
2024/04/17 05:36:16;;;;;;;8.25;3.53;;;6.70;99.90;;;;;;5456153;26;20343;-53
2024/04/17 05:38:42;;;;;;;3.33;0.90;;;6.70;99.90;;;;;;5452921;26;20010;-51
2024/04/17 05:41:07;;;;;;;6.63;1.33;;;6.70;99.90;;;;;;5452874;26;20010;-70
2024/04/17 05:43:33;;;;;;;6.68;1.08;;;6.80;99.90;;;;;;5452814;26;20409;-54
2024/04/17 05:45:58;;;;;;;5.55;1.13;;;6.80;99.90;;;;;;5453402;26;20000;-52
2024/04/17 05:48:24;;;;;;;4.72;0.98;;;6.80;99.90;;;;;;5452846;26;20365;-53
2024/04/17 05:50:50;;;;;;;11.25;1.58;;;6.90;99.90;;;;;;5452554;26;19998;-50
2024/04/17 05:53:15;;;;;;;9.75;1.33;;;6.90;99.90;;;;;;5466891;26;20512;-54
2024/04/17 05:55:41;;;;;;;23.05;1.77;;;6.90;99.90;;;;;;5452548;26;20013;-53
2024/04/17 05:58:07;;;;;;;5.45;1.80;;;7.00;99.90;;;;;;5452545;26;20451;-51
2024/04/17 06:00:36;;;;;;;8.43;1.65;;;7.00;99.90;;;;;;5452723;26;19995;-54
2024/04/17 06:03:02;;;;;;;5.90;1.20;;;7.10;99.90;;;;;;5453098;26;20003;-56
2024/04/17 06:05:28;;;;;;;7.32;0.77;;;7.10;99.90;;;;;;5452448;26;20475;-51
2024/04/17 06:07:54;;;;;;;7.20;1.35;;;7.10;99.90;;;;;;5476137;26;19998;-53
2024/04/17 06:10:19;;;;;;;15.10;3.10;;;7.20;99.90;;;;;;5469504;26;20013;-50
2024/04/17 06:12:45;;;;;;;12.25;1.55;;;7.20;99.90;;;;;;5488693;26;20006;-51
2024/04/17 06:15:10;;;;;;;4.28;1.35;;;7.20;99.90;;;;;;5489072;26;20499;-53
2024/04/17 06:17:36;;;;;;;6.80;1.33;;;7.30;99.90;;;;;;5480302;26;20003;-52
2024/04/17 06:20:02;;;;;;;7.13;0.85;;;7.30;99.90;;;;;;5454865;26;19995;-52
2024/04/17 06:22:27;;;;;;;5.35;1.27;;;7.30;99.90;;;;;;5464786;26;19994;-52
2024/04/17 06:24:54;;;;;;;4.63;1.23;;;7.30;99.90;;;;;;5488818;26;19994;-52
2024/04/17 06:27:20;;;;;;;4.30;1.17;;;7.30;99.90;;;;;;5455678;26;20068;-53
2024/04/17 06:29:46;;;;;;;2.30;0.82;;;7.40;99.90;;;;;;5484878;26;20025;-52
2024/04/17 06:32:11;;;;;;;7.28;1.48;;;7.40;99.90;;;;;;5469843;26;19995;-52
2024/04/17 06:34:37;;;;;;;3.30;0.93;;;7.40;99.90;;;;;;5452184;26;20327;-67
2024/04/17 06:37:03;;;;;;;6.57;1.92;;;7.50;99.90;;;;;;5472270;26;20003;-47
2024/04/17 06:39:29;;;;;;;11.38;1.90;;;7.70;99.90;;;;;;5488384;26;20070;-52
2024/04/17 06:41:57;;;;;;;9.82;1.25;;;7.80;99.90;;;;;;5488373;26;19998;-52
2024/04/17 06:44:23;;;;;;;11.98;1.70;;;7.80;99.90;;;;;;5488562;26;20005;-51
2024/04/17 06:46:49;;;;;;;7.30;1.38;;;7.90;99.90;;;;;;5486947;26;19999;-54
2024/04/17 06:49:14;;;;;;;8.00;1.35;;;7.90;99.90;;;;;;5485376;26;20421;-53
2024/04/17 06:51:40;;;;;;;15.63;1.30;;;8.00;99.90;;;;;;5487677;26;20513;-53
2024/04/17 06:54:06;;;;;;;18.83;1.90;;;8.10;99.90;;;;;;5485354;26;20016;-54
2024/04/17 06:56:31;;;;;;;11.95;1.48;;;8.20;99.90;;;;;;5467353;26;19999;-54
2024/04/17 06:58:57;;;;;;;4.25;0.77;;;8.10;99.90;;;;;;5451323;26;20007;-53
2024/04/17 07:01:22;;;;;;;4.05;1.10;;;8.10;99.90;;;;;;5451410;26;19999;-53
2024/04/17 07:03:48;;;;;;;15.35;1.60;;;8.20;99.90;;;;;;5453660;26;20343;-50
2024/04/17 07:06:14;;;;;;;4.47;0.70;;;8.30;99.90;;;;;;5473304;26;19994;-60
2024/04/17 07:08:40;;;;;;;6.28;0.82;;;8.40;99.90;;;;;;5485255;26;20395;-54
2024/04/17 07:11:05;;;;;;;9.85;0.85;;;8.50;99.90;;;;;;5487905;26;19998;-56
2024/04/17 07:13:31;;;;;;;6.32;0.98;;;8.60;99.90;;;;;;5488063;26;20439;-54
2024/04/17 07:15:57;;;;;;;2.25;0.82;;;8.80;99.90;;;;;;5487707;26;19998;-54
2024/04/17 07:18:26;;;;;;;5.40;0.77;;;8.90;99.90;;;;;;5487641;26;20008;-53
2024/04/17 07:20:52;;;;;;;6.57;1.00;;;9.00;99.90;;;;;;5470334;26;20030;-54
2024/04/17 07:23:18;;;;;;;4.13;0.30;;;9.10;99.90;;;;;;5465546;26;19994;-53
2024/04/17 07:25:43;;;;;;;10.90;0.88;;;9.10;99.90;;;;;;5478113;26;20068;-59
2024/04/17 07:28:10;;;;;;;15.43;1.20;;;9.30;99.90;;;;;;5451053;26;20014;-53
2024/04/17 07:30:39;;;;;;;6.55;1.70;;;9.40;99.90;;;;;;5473846;26;19994;-55
2024/04/17 07:33:05;;;;;;;3.42;0.75;;;9.40;99.90;;;;;;5487378;26;19994;-53
2024/04/17 07:35:31;;;;;;;4.90;0.98;;;9.50;99.90;;;;;;5491140;26;20005;-56
2024/04/17 07:37:56;;;;;;;5.32;0.90;;;9.70;99.90;;;;;;5488392;26;19995;-54
2024/04/17 07:40:22;;;;;;;1.42;0.80;;;9.90;99.90;;;;;;5491353;26;20006;-54
2024/04/17 07:42:48;;;;;;;5.30;1.15;;;10.00;99.90;;;;;;5488573;26;20002;-53
2024/04/17 07:45:14;;;;;;;5.78;0.85;;;9.90;99.90;;;;;;5490900;26;20073;-52
2024/04/17 07:47:40;;;;;;;2.97;0.60;;;9.50;99.90;;;;;;5487293;26;20467;-56
2024/04/17 07:50:06;;;;;;;1.20;0.70;;;9.00;99.90;;;;;;5454709;26;20444;-54
2024/04/17 07:52:31;;;;;;;3.20;0.60;;;8.40;99.90;;;;;;5454527;26;20013;-55
2024/04/17 07:54:57;;;;;;;0.90;0.43;;;8.00;99.90;;;;;;5486433;26;19999;-51
2024/04/17 07:57:23;;;;;;;2.17;0.25;;;7.70;99.90;;;;;;5488205;26;20009;-55
2024/04/17 07:59:48;;;;;;;0.32;0.30;;;7.40;99.90;;;;;;5486071;26;20465;-55
2024/04/17 08:02:14;;;;;;;0.10;0.10;;;7.10;99.90;;;;;;5480154;26;19999;-55
2024/04/17 08:04:40;;;;;;;2.17;0.20;;;7.00;99.90;;;;;;5484964;26;19994;-55
2024/04/17 08:07:06;;;;;;;0.95;0.30;;;7.00;99.90;;;;;;5461163;26;20003;-49
2024/04/17 08:09:33;;;;;;;1.02;0.30;;;7.00;99.90;;;;;;5477010;26;20485;-52
2024/04/17 08:11:59;;;;;;;2.83;0.73;;;7.00;99.90;;;;;;5487950;26;20063;-54
2024/04/17 08:14:24;;;;;;;0.50;0.32;;;7.00;99.90;;;;;;5472241;26;20011;-54
2024/04/17 08:16:50;;;;;;;3.08;0.68;;;7.10;99.90;;;;;;5454791;26;20481;-54
2024/04/17 08:19:16;;;;;;;0.52;0.40;;;7.20;99.90;;;;;;5454978;26;20005;-54
2024/04/17 08:21:42;;;;;;;4.85;0.32;;;7.30;99.90;;;;;;5458556;26;20008;-52
2024/04/17 08:24:08;;;;;;;4.35;0.80;;;7.50;99.90;;;;;;5480921;26;20108;-51
2024/04/17 08:26:33;;;;;;;0.88;0.82;;;7.70;99.90;;;;;;5453732;26;20002;-55
2024/04/17 08:28:59;;;;;;;2.95;0.30;;;8.10;99.90;;;;;;5453912;26;20011;-55
2024/04/17 08:31:26;;;;;;;2.13;0.80;;;8.50;99.90;;;;;;5454672;26;20455;-71
2024/04/17 08:33:52;;;;;;;2.40;0.60;;;8.90;99.90;;;;;;5463381;26;19994;-55
2024/04/17 08:36:18;;;;;;;1.38;0.30;;;9.10;99.90;;;;;;5471767;26;20025;-55
2024/04/17 08:38:43;;;;;;;5.07;0.50;;;9.20;99.90;;;;;;5453719;26;20009;-54
2024/04/17 08:41:09;;;;;;;4.03;0.50;;;9.40;99.90;;;;;;5484124;26;20387;-52
2024/04/17 08:43:38;;;;;;;0.25;0.25;;;9.60;99.90;;;;;;5486473;26;20074;-55
2024/04/17 08:46:05;;;;;;;2.33;0.40;;;9.70;99.90;;;;;;5489443;26;20013;-56
2024/04/17 08:48:32;;;;;;;1.35;0.20;;;9.80;99.90;;;;;;5490265;26;19998;-55
2024/04/17 08:50:58;;;;;;;2.13;0.10;;;9.90;99.90;;;;;;5490162;26;20013;-54
2024/04/17 08:53:26;;;;;;;2.30;0.35;;;9.90;99.90;;;;;;5489573;26;20727;-58
2024/04/17 08:55:52;;;;;;;0.45;0.22;;;10.00;99.90;;;;;;5490199;26;20467;-52
2024/04/17 08:58:18;;;;;;;0.17;0.17;;;10.20;99.90;;;;;;5489942;26;20121;-54
2024/04/17 09:00:49;;;;;;;0.90;0.20;;;10.40;99.90;;;;;;5489885;26;19998;-53
2024/04/17 09:03:20;;;;;;;2.55;0.30;;;10.50;99.90;;;;;;5490265;26;19995;-45
2024/04/17 09:05:46;;;;;;;0.68;0.20;;;10.60;99.90;;;;;;5490140;26;20384;-45
2024/04/17 09:08:12;;;;;;;0.60;0.30;;;10.80;99.90;;;;;;5489995;26;20012;-47
2024/04/17 09:10:39;;;;;;;0.20;0.17;;;10.90;99.90;;;;;;5489713;26;20002;-46
2024/04/17 09:13:05;;;;;;;0.77;0.13;;;11.10;99.90;;;;;;5489612;26;20002;-46
2024/04/17 09:15:30;;;;;;;0.45;0.28;;;11.10;99.90;;;;;;5489474;26;20063;-48
2024/04/17 09:17:59;;;;;;;0.32;0.15;;;11.10;99.90;;;;;;5489572;26;20005;-46
2024/04/17 09:20:24;;;;;;;0.73;0.50;;;11.30;99.90;;;;;;5489698;26;20334;-49
2024/04/17 09:22:53;;;;;;;6.53;0.57;;;11.70;99.90;;;;;;5487460;26;19994;-55
2024/04/17 09:25:19;;;;;;;5.15;0.70;;;11.60;99.90;;;;;;5486681;26;20006;-49
2024/04/17 09:27:46;;;;;;;2.55;0.38;;;11.80;99.90;;;;;;5475113;26;20360;-51
2024/04/17 09:30:15;;;;;;;2.05;0.77;;;11.80;99.90;;;;;;5489464;26;20315;-47
2024/04/17 09:32:42;;;;;;;3.42;0.38;;;11.70;99.90;;;;;;5458901;26;20431;-44
2024/04/17 09:35:10;;;;;;;1.00;0.80;;;11.70;99.90;;;;;;5453745;26;20049;-56
2024/04/17 09:37:37;;;;;;;6.20;0.50;;;11.80;99.90;;;;;;5469525;26;19995;-55
2024/04/17 09:40:08;;;;;;;1.50;0.38;;;11.90;99.90;;;;;;5467982;26;19995;-54
2024/04/17 09:42:35;;;;;;;7.00;0.60;;;12.10;99.90;;;;;;5453527;26;20451;-52
2024/04/17 09:45:01;;;;;;;1.35;0.45;;;12.20;99.90;;;;;;5482976;26;20513;-53
2024/04/17 09:47:30;;;;;;;3.88;0.68;;;12.30;99.90;;;;;;5460219;26;19995;-53
2024/04/17 09:49:59;;;;;;;2.85;0.55;;;12.30;99.90;;;;;;5485972;26;19994;-53
2024/04/17 09:52:29;;;;;;;3.80;0.30;;;12.10;99.90;;;;;;5486372;26;20030;-56
2024/04/17 09:54:56;;;;;;;5.13;0.40;;;11.90;99.90;;;;;;5486516;26;19995;-57
2024/04/17 09:57:22;;;;;;;1.60;0.90;;;11.60;99.90;;;;;;5448299;26;20001;-55
2024/04/17 09:59:49;;;;;;;5.55;0.70;;;11.20;99.90;;;;;;5488953;26;19990;-57
2024/04/17 10:02:16;;;;;;;4.68;0.45;;;11.20;99.90;;;;;;5488489;26;19994;-55
2024/04/17 10:04:45;;;;;;;0.60;0.40;;;11.20;99.90;;;;;;5488986;26;20066;-56
2024/04/17 10:07:12;;;;;;;4.72;1.00;;;11.10;99.90;;;;;;5488684;26;19994;-56
2024/04/17 10:09:41;;;;;;;0.50;0.45;;;11.00;99.90;;;;;;5488801;26;20324;-56
2024/04/17 10:12:11;;;;;;;6.43;0.77;;;10.90;99.90;;;;;;5488166;26;20002;-57
2024/04/17 10:14:40;;;;;;;1.45;0.68;;;10.80;99.90;;;;;;5488873;26;20044;-49
2024/04/17 10:17:07;;;;;;;2.28;1.25;;;10.80;99.90;;;;;;5488651;26;20031;-55
2024/04/17 10:19:33;;;;;;;2.22;0.80;;;10.60;99.90;;;;;;5488392;26;20455;-56
2024/04/17 10:22:04;;;;;;;2.95;0.60;;;10.50;99.90;;;;;;5488659;26;20454;-55
2024/04/17 10:24:30;;;;;;;3.10;0.77;;;10.50;99.90;;;;;;5488730;26;20006;-55
2024/04/17 10:26:57;;;;;;;2.03;0.70;;;10.40;99.90;;;;;;5488646;26;19998;-55
2024/04/17 10:29:28;;;;;;;2.65;0.50;;;10.10;99.90;;;;;;5488627;26;20334;-55
2024/04/17 10:32:05;;;;;;;0.77;0.60;;;10.00;99.90;;;;;;5488814;26;20012;-53
2024/04/17 10:34:41;;;;;;;3.67;0.57;;;9.80;99.90;;;;;;5488620;26;20470;-54
2024/04/17 10:37:09;;;;;;;2.90;0.60;;;9.60;99.90;;;;;;5488432;26;20443;-55
2024/04/17 10:39:37;;;;;;;0.40;0.40;;;9.40;99.90;;;;;;5488299;26;20447;-55
2024/04/17 10:42:07;;;;;;;0.43;0.43;;;9.20;99.90;;;;;;5488067;26;19994;-54
2024/04/17 10:44:48;;;;;;;2.00;0.68;;;8.90;99.90;;;;;;5488317;26;19998;-55
2024/04/17 10:47:23;;;;;;;1.85;0.50;;;8.50;99.90;;;;;;5488239;26;20009;-56
2024/04/17 10:49:59;;;;;;;3.42;0.85;;;8.00;99.90;;;;;;5488075;26;20006;-59
2024/04/17 10:52:26;;;;;;;0.40;0.40;;;7.40;99.90;;;;;;5487399;26;20409;-52
2024/04/17 10:54:55;;;;;;;1.63;0.68;;;7.00;99.90;;;;;;5487678;26;19998;-52
2024/04/17 10:57:21;;;;;;;2.70;0.75;;;6.50;99.90;;;;;;5487565;26;19994;-53
2024/04/17 10:59:48;;;;;;;5.07;0.95;;;6.30;99.90;;;;;;5487709;26;20009;-51
2024/04/17 11:02:14;;;;;;;2.95;0.80;;;6.10;99.90;;;;;;5485711;26;19998;-53
2024/04/17 11:04:40;;;;;;;2.35;0.63;;;6.00;99.90;;;;;;5487360;26;20427;-52
2024/04/17 11:07:13;;;;;;;2.47;0.68;;;5.80;99.90;;;;;;5487469;26;19998;-52
2024/04/17 11:09:48;;;;;;;8.98;0.85;;;5.80;99.90;;;;;;5490825;26;19994;-44
2024/04/17 11:12:18;;;;;;;1.17;0.50;;;5.70;99.90;;;;;;5491113;26;19994;-45
2024/04/17 11:14:44;;;;;;;1.67;0.60;;;5.60;99.90;;;;;;5489376;26;20499;-42
2024/04/17 11:17:10;;;;;;;4.00;0.82;;;5.60;99.90;;;;;;5491003;26;20490;-42
2024/04/17 11:19:42;;;;;;;3.45;0.70;;;5.50;99.90;;;;;;5491106;26;20002;-40
2024/04/17 11:22:13;;;;;;;7.88;0.82;;;5.50;99.90;;;;;;5490998;26;20536;-41
2024/04/17 11:24:46;;;;;;;4.72;1.77;;;5.50;99.90;;;;;;5491018;26;20005;-51
2024/04/17 11:27:15;;;;;;;3.53;1.10;;;5.60;99.90;;;;;;5490637;26;20450;-52
2024/04/17 11:29:44;;;;;;;1.88;0.98;;;5.50;99.90;;;;;;5490908;26;20370;-55
2024/04/17 11:32:10;;;;;;;0.93;0.75;;;5.50;99.90;;;;;;5490952;26;19998;-51
2024/04/17 11:34:35;;;;;;;2.03;0.90;;;5.40;99.90;;;;;;5490795;26;20059;-54
2024/04/17 11:37:05;;;;;;;1.35;0.80;;;5.40;99.90;;;;;;5490947;26;19994;-54
2024/04/17 11:39:31;;;;;;;0.68;0.52;;;5.40;99.90;;;;;;5490961;26;20002;-52
2024/04/17 11:41:59;;;;;;;4.07;0.85;;;5.30;99.90;;;;;;5491039;26;20069;-51
2024/04/17 11:44:26;;;;;;;1.10;0.98;;;5.30;99.90;;;;;;5490671;26;20540;-53
2024/04/17 11:46:55;;;;;;;2.97;0.60;;;5.30;99.90;;;;;;5491191;26;19994;-52
2024/04/17 11:49:22;;;;;;;0.60;0.60;;;5.30;99.90;;;;;;5490423;26;20388;-50
2024/04/17 11:51:48;;;;;;;8.30;0.73;;;5.30;99.90;;;;;;5488826;26;20431;-52
2024/04/17 11:54:13;;;;;;;1.63;0.60;;;5.30;99.90;;;;;;5462844;26;19998;-52
2024/04/17 11:56:39;;;;;;;0.82;0.73;;;5.30;99.90;;;;;;5454237;26;19999;-52
2024/04/17 11:59:05;;;;;;;2.45;0.90;;;5.30;99.90;;;;;;5454037;26;20459;-52
2024/04/17 12:01:30;;;;;;;6.53;0.70;;;5.30;99.90;;;;;;5488793;26;19994;-53
2024/04/17 12:03:56;;;;;;;1.65;0.65;;;5.40;99.90;;;;;;5490398;26;20009;-49
2024/04/17 12:06:22;;;;;;;0.50;0.50;;;5.40;99.90;;;;;;5487648;26;20443;-47
2024/04/17 12:08:47;;;;;;;1.08;0.80;;;5.60;99.90;;;;;;5490339;26;20009;-52
2024/04/17 12:11:13;;;;;;;0.60;0.60;;;5.60;99.90;;;;;;5490239;26;20009;-51
2024/04/17 12:13:38;;;;;;;2.08;1.00;;;5.90;99.90;;;;;;5490610;26;20391;-53
2024/04/17 12:16:08;;;;;;;1.48;0.70;;;6.10;99.90;;;;;;5490291;26;20458;-50
2024/04/17 12:18:36;;;;;;;0.80;0.40;;;6.30;99.90;;;;;;5489825;26;19994;-52
2024/04/17 12:21:01;;;;;;;1.60;0.45;;;6.50;99.90;;;;;;5489250;26;19994;-59
2024/04/17 12:23:27;;;;;;;3.63;0.40;;;6.60;99.90;;;;;;5490268;26;20468;-53
2024/04/17 12:28:37;;;;;;;0.35;0.30;;;7.10;99.90;;;;;;5490145;26;20078;-48
2024/04/17 12:31:02;;;;;;;2.85;0.40;;;7.40;99.90;;;;;;5490178;26;20025;-47
2024/04/17 12:33:29;;;;;;;0.65;0.35;;;7.30;99.90;;;;;;5489761;26;20067;-37
2024/04/17 12:35:55;;;;;;;1.42;0.57;;;7.30;99.90;;;;;;5490032;26;19998;-36
2024/04/17 12:38:21;;;;;;;0.60;0.60;;;7.20;99.90;;;;;;5490180;26;20062;-36
2024/04/17 12:40:50;;;;;;;2.30;0.60;;;7.20;99.90;;;;;;5490212;26;19994;-36
2024/04/17 12:43:16;;;;;;;0.73;0.38;;;7.20;99.90;;;;;;5489909;26;19994;-37
2024/04/17 12:45:41;;;;;;;0.45;0.40;;;7.30;99.90;;;;;;5489919;26;19995;-37
2024/04/17 12:48:09;;;;;;;1.55;0.68;;;7.50;99.90;;;;;;5489734;26;20005;-36
2024/04/17 12:50:34;;;;;;;1.13;0.57;;;7.70;99.90;;;;;;5489722;26;20469;-36
2024/04/17 12:53:01;;;;;;;2.20;0.80;;;7.80;99.90;;;;;;5489649;26;19998;-36
2024/04/17 12:55:27;;;;;;;0.55;0.55;;;8.00;99.90;;;;;;5489447;26;20335;-36